sensor_id;sensor_type;location;lat;lon;timestamp;temperature;humidity
14577;DHT22;7375;46.072;14.470;2023-03-19T00:00:44;19.50;50.80
14577;DHT22;7375;46.072;14.470;2023-03-19T00:03:12;19.50;50.80
14577;DHT22;7375;46.072;14.470;2023-03-19T00:05:39;19.50;50.80
14577;DHT22;7375;46.072;14.470;2023-03-19T00:08:06;19.50;50.80
14577;DHT22;7375;46.072;14.470;2023-03-19T00:10:36;19.50;50.80
14577;DHT22;7375;46.072;14.470;2023-03-19T00:13:03;19.50;50.80
14577;DHT22;7375;46.072;14.470;2023-03-19T00:15:30;19.50;50.80
14577;DHT22;7375;46.072;14.470;2023-03-19T00:17:56;19.50;50.80
14577;DHT22;7375;46.072;14.470;2023-03-19T00:20:25;19.50;50.80
14577;DHT22;7375;46.072;14.470;2023-03-19T00:22:51;19.50;50.80
14577;DHT22;7375;46.072;14.470;2023-03-19T00:25:18;19.50;50.90
14577;DHT22;7375;46.072;14.470;2023-03-19T00:27:45;19.40;50.80
14577;DHT22;7375;46.072;14.470;2023-03-19T00:30:12;19.40;50.80
14577;DHT22;7375;46.072;14.470;2023-03-19T00:32:39;19.40;50.80
14577;DHT22;7375;46.072;14.470;2023-03-19T00:35:07;19.40;50.80
14577;DHT22;7375;46.072;14.470;2023-03-19T00:37:35;19.40;50.80
14577;DHT22;7375;46.072;14.470;2023-03-19T00:40:02;19.40;50.80
14577;DHT22;7375;46.072;14.470;2023-03-19T00:42:29;19.40;50.80
14577;DHT22;7375;46.072;14.470;2023-03-19T00:44:56;19.40;50.80
14577;DHT22;7375;46.072;14.470;2023-03-19T00:47:23;19.40;50.80
14577;DHT22;7375;46.072;14.470;2023-03-19T00:49:51;19.40;50.90
14577;DHT22;7375;46.072;14.470;2023-03-19T00:52:18;19.40;50.90
14577;DHT22;7375;46.072;14.470;2023-03-19T00:54:46;19.40;50.90
14577;DHT22;7375;46.072;14.470;2023-03-19T00:57:13;19.40;50.90
14577;DHT22;7375;46.072;14.470;2023-03-19T00:59:39;19.30;50.80
14577;DHT22;7375;46.072;14.470;2023-03-19T01:02:06;19.40;50.90
14577;DHT22;7375;46.072;14.470;2023-03-19T01:04:33;19.30;50.80
14577;DHT22;7375;46.072;14.470;2023-03-19T01:07:00;19.30;50.80
14577;DHT22;7375;46.072;14.470;2023-03-19T01:09:27;19.30;50.80
14577;DHT22;7375;46.072;14.470;2023-03-19T01:11:55;19.40;50.90
14577;DHT22;7375;46.072;14.470;2023-03-19T01:14:21;19.30;50.80
14577;DHT22;7375;46.072;14.470;2023-03-19T01:16:48;19.30;50.80
14577;DHT22;7375;46.072;14.470;2023-03-19T01:19:15;19.30;50.90
14577;DHT22;7375;46.072;14.470;2023-03-19T01:21:42;19.30;50.80
14577;DHT22;7375;46.072;14.470;2023-03-19T01:24:10;19.30;50.80
14577;DHT22;7375;46.072;14.470;2023-03-19T01:26:37;19.30;50.80
14577;DHT22;7375;46.072;14.470;2023-03-19T01:29:05;19.30;50.80
14577;DHT22;7375;46.072;14.470;2023-03-19T01:31:32;19.30;50.90
14577;DHT22;7375;46.072;14.470;2023-03-19T01:33:59;19.30;50.90
14577;DHT22;7375;46.072;14.470;2023-03-19T01:36:26;19.30;50.90
14577;DHT22;7375;46.072;14.470;2023-03-19T01:38:53;19.30;50.90
14577;DHT22;7375;46.072;14.470;2023-03-19T01:41:21;19.30;50.90
14577;DHT22;7375;46.072;14.470;2023-03-19T01:43:48;19.30;50.90
14577;DHT22;7375;46.072;14.470;2023-03-19T01:46:19;19.30;50.90
14577;DHT22;7375;46.072;14.470;2023-03-19T01:48:50;19.30;50.90
14577;DHT22;7375;46.072;14.470;2023-03-19T01:51:19;19.20;50.80
14577;DHT22;7375;46.072;14.470;2023-03-19T01:53:48;19.30;50.90
14577;DHT22;7375;46.072;14.470;2023-03-19T01:56:16;19.20;50.90
14577;DHT22;7375;46.072;14.470;2023-03-19T01:58:44;19.30;51.00
14577;DHT22;7375;46.072;14.470;2023-03-19T02:01:11;19.20;50.90
14577;DHT22;7375;46.072;14.470;2023-03-19T02:03:40;19.20;50.80
14577;DHT22;7375;46.072;14.470;2023-03-19T02:06:07;19.20;50.80
14577;DHT22;7375;46.072;14.470;2023-03-19T02:08:35;19.20;50.90
14577;DHT22;7375;46.072;14.470;2023-03-19T02:11:02;19.20;50.90
14577;DHT22;7375;46.072;14.470;2023-03-19T02:13:30;19.20;50.90
14577;DHT22;7375;46.072;14.470;2023-03-19T02:15:56;19.20;50.90
14577;DHT22;7375;46.072;14.470;2023-03-19T02:18:24;19.20;50.90
14577;DHT22;7375;46.072;14.470;2023-03-19T02:20:54;19.20;51.00
14577;DHT22;7375;46.072;14.470;2023-03-19T02:23:25;19.20;50.90
14577;DHT22;7375;46.072;14.470;2023-03-19T02:26:00;19.20;50.90
14577;DHT22;7375;46.072;14.470;2023-03-19T02:28:28;19.20;50.90
14577;DHT22;7375;46.072;14.470;2023-03-19T02:30:55;19.20;50.90
14577;DHT22;7375;46.072;14.470;2023-03-19T02:33:22;19.20;50.90
14577;DHT22;7375;46.072;14.470;2023-03-19T02:35:49;19.20;50.90
14577;DHT22;7375;46.072;14.470;2023-03-19T02:38:17;19.20;51.00
14577;DHT22;7375;46.072;14.470;2023-03-19T02:40:47;19.10;50.90
14577;DHT22;7375;46.072;14.470;2023-03-19T02:43:16;19.20;50.90
14577;DHT22;7375;46.072;14.470;2023-03-19T02:45:43;19.20;51.00
14577;DHT22;7375;46.072;14.470;2023-03-19T02:48:09;19.10;50.90
14577;DHT22;7375;46.072;14.470;2023-03-19T02:50:36;19.10;50.90
14577;DHT22;7375;46.072;14.470;2023-03-19T02:53:03;19.10;50.90
14577;DHT22;7375;46.072;14.470;2023-03-19T02:55:30;19.10;50.90
14577;DHT22;7375;46.072;14.470;2023-03-19T02:57:56;19.10;50.90
14577;DHT22;7375;46.072;14.470;2023-03-19T03:00:25;19.10;50.90
14577;DHT22;7375;46.072;14.470;2023-03-19T03:02:52;19.10;51.00
14577;DHT22;7375;46.072;14.470;2023-03-19T03:05:19;19.10;50.90
14577;DHT22;7375;46.072;14.470;2023-03-19T03:07:46;19.10;50.90
14577;DHT22;7375;46.072;14.470;2023-03-19T03:10:14;19.10;50.90
14577;DHT22;7375;46.072;14.470;2023-03-19T03:12:41;19.10;50.90
14577;DHT22;7375;46.072;14.470;2023-03-19T03:15:08;19.10;50.90
14577;DHT22;7375;46.072;14.470;2023-03-19T03:17:37;19.10;50.90
14577;DHT22;7375;46.072;14.470;2023-03-19T03:20:04;19.10;51.00
14577;DHT22;7375;46.072;14.470;2023-03-19T03:22:31;19.10;50.90
14577;DHT22;7375;46.072;14.470;2023-03-19T03:24:58;19.10;50.90
14577;DHT22;7375;46.072;14.470;2023-03-19T03:27:25;19.10;51.00
14577;DHT22;7375;46.072;14.470;2023-03-19T03:29:52;19.10;51.00
14577;DHT22;7375;46.072;14.470;2023-03-19T03:32:19;19.10;51.00
14577;DHT22;7375;46.072;14.470;2023-03-19T03:34:47;19.10;51.00
14577;DHT22;7375;46.072;14.470;2023-03-19T03:37:14;19.10;50.90
14577;DHT22;7375;46.072;14.470;2023-03-19T03:39:41;19.10;51.00
14577;DHT22;7375;46.072;14.470;2023-03-19T03:42:08;19.10;51.00
14577;DHT22;7375;46.072;14.470;2023-03-19T03:44:35;19.10;51.00
14577;DHT22;7375;46.072;14.470;2023-03-19T03:47:02;19.10;51.00
14577;DHT22;7375;46.072;14.470;2023-03-19T03:49:29;19.10;51.00
14577;DHT22;7375;46.072;14.470;2023-03-19T03:51:57;19.10;51.00
14577;DHT22;7375;46.072;14.470;2023-03-19T03:54:24;19.10;51.00
14577;DHT22;7375;46.072;14.470;2023-03-19T03:56:50;19.00;50.90
14577;DHT22;7375;46.072;14.470;2023-03-19T03:59:17;19.10;51.00
14577;DHT22;7375;46.072;14.470;2023-03-19T04:01:44;19.10;51.00
14577;DHT22;7375;46.072;14.470;2023-03-19T04:04:11;19.10;51.00
14577;DHT22;7375;46.072;14.470;2023-03-19T04:06:38;19.00;50.90
14577;DHT22;7375;46.072;14.470;2023-03-19T04:09:06;19.00;50.90
14577;DHT22;7375;46.072;14.470;2023-03-19T04:11:33;19.00;50.90
14577;DHT22;7375;46.072;14.470;2023-03-19T04:14:00;19.00;50.90
14577;DHT22;7375;46.072;14.470;2023-03-19T04:16:27;19.00;50.90
14577;DHT22;7375;46.072;14.470;2023-03-19T04:18:54;19.00;50.90
14577;DHT22;7375;46.072;14.470;2023-03-19T04:21:21;19.00;50.90
14577;DHT22;7375;46.072;14.470;2023-03-19T04:23:48;19.00;50.90
14577;DHT22;7375;46.072;14.470;2023-03-19T04:26:16;19.00;50.90
14577;DHT22;7375;46.072;14.470;2023-03-19T04:28:43;19.00;50.90
14577;DHT22;7375;46.072;14.470;2023-03-19T04:31:10;19.00;50.90
14577;DHT22;7375;46.072;14.470;2023-03-19T04:33:36;19.00;50.90
14577;DHT22;7375;46.072;14.470;2023-03-19T04:36:03;19.00;50.90
14577;DHT22;7375;46.072;14.470;2023-03-19T04:38:30;19.00;50.90
14577;DHT22;7375;46.072;14.470;2023-03-19T04:40:57;19.00;50.90
14577;DHT22;7375;46.072;14.470;2023-03-19T04:43:25;19.00;50.90
14577;DHT22;7375;46.072;14.470;2023-03-19T04:45:52;19.00;50.90
14577;DHT22;7375;46.072;14.470;2023-03-19T04:48:18;19.00;50.90
14577;DHT22;7375;46.072;14.470;2023-03-19T04:50:45;19.00;50.90
14577;DHT22;7375;46.072;14.470;2023-03-19T04:53:16;19.00;50.90
14577;DHT22;7375;46.072;14.470;2023-03-19T04:55:42;19.00;51.00
14577;DHT22;7375;46.072;14.470;2023-03-19T04:58:09;19.00;50.90
14577;DHT22;7375;46.072;14.470;2023-03-19T05:00:37;19.00;50.90
14577;DHT22;7375;46.072;14.470;2023-03-19T05:03:04;19.00;50.90
14577;DHT22;7375;46.072;14.470;2023-03-19T05:05:31;19.00;50.80
14577;DHT22;7375;46.072;14.470;2023-03-19T05:07:58;19.00;50.90
14577;DHT22;7375;46.072;14.470;2023-03-19T05:10:25;19.00;50.90
14577;DHT22;7375;46.072;14.470;2023-03-19T05:12:52;19.00;50.90
14577;DHT22;7375;46.072;14.470;2023-03-19T05:15:19;19.00;50.90
14577;DHT22;7375;46.072;14.470;2023-03-19T05:17:47;19.00;50.90
14577;DHT22;7375;46.072;14.470;2023-03-19T05:20:14;19.00;50.90
14577;DHT22;7375;46.072;14.470;2023-03-19T05:22:41;19.00;51.40
14577;DHT22;7375;46.072;14.470;2023-03-19T05:25:08;19.00;50.80
14577;DHT22;7375;46.072;14.470;2023-03-19T05:27:34;19.00;50.80
14577;DHT22;7375;46.072;14.470;2023-03-19T05:30:02;19.00;50.80
14577;DHT22;7375;46.072;14.470;2023-03-19T05:32:28;19.00;50.90
14577;DHT22;7375;46.072;14.470;2023-03-19T05:34:57;19.00;50.90
14577;DHT22;7375;46.072;14.470;2023-03-19T05:37:24;19.00;50.80
14577;DHT22;7375;46.072;14.470;2023-03-19T05:39:51;19.00;50.80
14577;DHT22;7375;46.072;14.470;2023-03-19T05:42:17;19.00;50.90
14577;DHT22;7375;46.072;14.470;2023-03-19T05:44:44;19.00;50.80
14577;DHT22;7375;46.072;14.470;2023-03-19T05:47:11;19.00;51.40
14577;DHT22;7375;46.072;14.470;2023-03-19T05:49:38;19.00;50.80
14577;DHT22;7375;46.072;14.470;2023-03-19T05:52:06;19.00;50.80
14577;DHT22;7375;46.072;14.470;2023-03-19T05:54:33;19.00;50.80
14577;DHT22;7375;46.072;14.470;2023-03-19T05:57:00;19.00;50.80
14577;DHT22;7375;46.072;14.470;2023-03-19T05:59:27;19.00;50.80
14577;DHT22;7375;46.072;14.470;2023-03-19T06:01:53;19.00;50.80
14577;DHT22;7375;46.072;14.470;2023-03-19T06:04:20;19.00;50.80
14577;DHT22;7375;46.072;14.470;2023-03-19T06:06:47;19.00;50.80
14577;DHT22;7375;46.072;14.470;2023-03-19T06:09:15;19.00;50.80
14577;DHT22;7375;46.072;14.470;2023-03-19T06:11:42;19.00;50.70
14577;DHT22;7375;46.072;14.470;2023-03-19T06:14:09;19.00;50.70
14577;DHT22;7375;46.072;14.470;2023-03-19T06:16:35;19.00;50.70
14577;DHT22;7375;46.072;14.470;2023-03-19T06:19:02;19.10;50.70
14577;DHT22;7375;46.072;14.470;2023-03-19T06:21:29;19.10;50.70
14577;DHT22;7375;46.072;14.470;2023-03-19T06:23:56;19.10;50.70
14577;DHT22;7375;46.072;14.470;2023-03-19T06:26:24;19.10;50.70
14577;DHT22;7375;46.072;14.470;2023-03-19T06:28:51;19.10;50.60
14577;DHT22;7375;46.072;14.470;2023-03-19T06:31:27;19.10;50.60
14577;DHT22;7375;46.072;14.470;2023-03-19T06:33:54;19.10;50.60
14577;DHT22;7375;46.072;14.470;2023-03-19T06:36:21;19.10;50.50
14577;DHT22;7375;46.072;14.470;2023-03-19T06:38:47;19.10;50.50
14577;DHT22;7375;46.072;14.470;2023-03-19T06:41:14;19.10;50.40
14577;DHT22;7375;46.072;14.470;2023-03-19T06:43:43;19.10;50.40
14577;DHT22;7375;46.072;14.470;2023-03-19T06:46:10;19.20;50.40
14577;DHT22;7375;46.072;14.470;2023-03-19T06:48:37;19.20;50.40
14577;DHT22;7375;46.072;14.470;2023-03-19T06:51:04;19.20;50.40
14577;DHT22;7375;46.072;14.470;2023-03-19T06:53:31;19.20;50.40
14577;DHT22;7375;46.072;14.470;2023-03-19T06:55:58;19.20;50.40
14577;DHT22;7375;46.072;14.470;2023-03-19T06:58:25;19.20;50.40
14577;DHT22;7375;46.072;14.470;2023-03-19T07:00:53;19.20;50.30
14577;DHT22;7375;46.072;14.470;2023-03-19T07:03:21;19.30;50.40
14577;DHT22;7375;46.072;14.470;2023-03-19T07:05:48;19.30;50.30
14577;DHT22;7375;46.072;14.470;2023-03-19T07:08:15;19.30;50.20
14577;DHT22;7375;46.072;14.470;2023-03-19T07:10:42;19.30;50.20
14577;DHT22;7375;46.072;14.470;2023-03-19T07:13:09;19.30;50.10
14577;DHT22;7375;46.072;14.470;2023-03-19T07:15:35;19.40;50.20
14577;DHT22;7375;46.072;14.470;2023-03-19T07:18:04;19.40;50.10
14577;DHT22;7375;46.072;14.470;2023-03-19T07:20:31;19.50;50.10
14577;DHT22;7375;46.072;14.470;2023-03-19T07:22:57;19.50;50.00
14577;DHT22;7375;46.072;14.470;2023-03-19T07:25:24;19.50;49.90
14577;DHT22;7375;46.072;14.470;2023-03-19T07:27:51;19.50;49.90
14577;DHT22;7375;46.072;14.470;2023-03-19T07:30:18;19.50;49.90
14577;DHT22;7375;46.072;14.470;2023-03-19T07:32:44;19.50;49.90
14577;DHT22;7375;46.072;14.470;2023-03-19T07:35:13;19.50;49.80
14577;DHT22;7375;46.072;14.470;2023-03-19T07:37:40;19.60;49.80
14577;DHT22;7375;46.072;14.470;2023-03-19T07:40:07;19.60;49.80
14577;DHT22;7375;46.072;14.470;2023-03-19T07:42:34;19.60;49.70
14577;DHT22;7375;46.072;14.470;2023-03-19T07:45:03;19.60;49.70
14577;DHT22;7375;46.072;14.470;2023-03-19T07:47:30;19.60;49.70
14577;DHT22;7375;46.072;14.470;2023-03-19T07:49:57;19.60;49.60
14577;DHT22;7375;46.072;14.470;2023-03-19T07:52:25;19.70;49.60
14577;DHT22;7375;46.072;14.470;2023-03-19T07:54:52;19.70;49.50
14577;DHT22;7375;46.072;14.470;2023-03-19T07:57:19;19.70;49.50
14577;DHT22;7375;46.072;14.470;2023-03-19T07:59:46;19.80;49.50
14577;DHT22;7375;46.072;14.470;2023-03-19T08:02:12;19.80;49.40
14577;DHT22;7375;46.072;14.470;2023-03-19T08:04:39;19.80;49.40
14577;DHT22;7375;46.072;14.470;2023-03-19T08:07:06;19.80;49.30
14577;DHT22;7375;46.072;14.470;2023-03-19T08:09:36;19.80;49.30
14577;DHT22;7375;46.072;14.470;2023-03-19T08:12:03;19.90;49.30
14577;DHT22;7375;46.072;14.470;2023-03-19T08:14:30;19.90;49.20
14577;DHT22;7375;46.072;14.470;2023-03-19T08:16:57;19.90;49.10
14577;DHT22;7375;46.072;14.470;2023-03-19T08:19:24;19.90;49.10
14577;DHT22;7375;46.072;14.470;2023-03-19T08:21:51;20.00;49.10
14577;DHT22;7375;46.072;14.470;2023-03-19T08:24:18;20.00;49.10
14577;DHT22;7375;46.072;14.470;2023-03-19T08:26:46;20.00;49.00
14577;DHT22;7375;46.072;14.470;2023-03-19T08:29:13;20.00;48.90
14577;DHT22;7375;46.072;14.470;2023-03-19T08:31:40;20.10;48.90
14577;DHT22;7375;46.072;14.470;2023-03-19T08:34:07;20.00;48.80
14577;DHT22;7375;46.072;14.470;2023-03-19T08:36:35;20.10;48.90
14577;DHT22;7375;46.072;14.470;2023-03-19T08:39:01;20.00;48.80
14577;DHT22;7375;46.072;14.470;2023-03-19T08:41:28;20.10;48.90
14577;DHT22;7375;46.072;14.470;2023-03-19T08:43:56;20.10;48.90
14577;DHT22;7375;46.072;14.470;2023-03-19T08:46:23;20.10;48.80
14577;DHT22;7375;46.072;14.470;2023-03-19T08:48:51;20.10;48.70
14577;DHT22;7375;46.072;14.470;2023-03-19T08:51:18;20.20;48.70
14577;DHT22;7375;46.072;14.470;2023-03-19T08:53:45;20.20;48.60
14577;DHT22;7375;46.072;14.470;2023-03-19T08:56:12;20.30;48.60
14577;DHT22;7375;46.072;14.470;2023-03-19T08:58:38;20.30;48.40
14577;DHT22;7375;46.072;14.470;2023-03-19T09:01:08;20.30;48.30
14577;DHT22;7375;46.072;14.470;2023-03-19T09:03:36;20.40;48.30
14577;DHT22;7375;46.072;14.470;2023-03-19T09:06:03;20.40;48.20
14577;DHT22;7375;46.072;14.470;2023-03-19T09:08:31;20.50;48.30
14577;DHT22;7375;46.072;14.470;2023-03-19T09:10:57;20.50;48.30
14577;DHT22;7375;46.072;14.470;2023-03-19T09:13:24;20.50;48.40
14577;DHT22;7375;46.072;14.470;2023-03-19T09:15:51;20.50;48.30
14577;DHT22;7375;46.072;14.470;2023-03-19T09:18:19;20.50;48.30
14577;DHT22;7375;46.072;14.470;2023-03-19T09:20:48;20.50;48.40
14577;DHT22;7375;46.072;14.470;2023-03-19T09:23:15;20.50;48.40
14577;DHT22;7375;46.072;14.470;2023-03-19T09:25:42;20.50;48.40
14577;DHT22;7375;46.072;14.470;2023-03-19T09:28:08;20.50;48.40
14577;DHT22;7375;46.072;14.470;2023-03-19T09:30:35;20.60;48.40
14577;DHT22;7375;46.072;14.470;2023-03-19T09:33:03;20.60;48.10
14577;DHT22;7375;46.072;14.470;2023-03-19T09:35:31;20.70;48.20
14577;DHT22;7375;46.072;14.470;2023-03-19T09:37:58;20.70;48.20
14577;DHT22;7375;46.072;14.470;2023-03-19T09:40:27;20.80;48.10
14577;DHT22;7375;46.072;14.470;2023-03-19T09:42:58;20.80;48.60
14577;DHT22;7375;46.072;14.470;2023-03-19T09:45:26;20.90;47.90
14577;DHT22;7375;46.072;14.470;2023-03-19T09:47:54;20.90;47.90
14577;DHT22;7375;46.072;14.470;2023-03-19T09:50:23;21.00;48.00
14577;DHT22;7375;46.072;14.470;2023-03-19T09:52:52;21.00;47.90
14577;DHT22;7375;46.072;14.470;2023-03-19T09:55:29;21.00;47.90
14577;DHT22;7375;46.072;14.470;2023-03-19T09:57:57;21.10;47.80
14577;DHT22;7375;46.072;14.470;2023-03-19T10:00:25;21.10;47.70
14577;DHT22;7375;46.072;14.470;2023-03-19T10:02:53;21.10;47.70
14577;DHT22;7375;46.072;14.470;2023-03-19T10:05:24;21.20;47.70
14577;DHT22;7375;46.072;14.470;2023-03-19T10:08:04;21.20;47.50
14577;DHT22;7375;46.072;14.470;2023-03-19T10:10:37;21.20;47.60
14577;DHT22;7375;46.072;14.470;2023-03-19T10:13:11;21.20;47.60
14577;DHT22;7375;46.072;14.470;2023-03-19T10:15:43;21.30;47.50
14577;DHT22;7375;46.072;14.470;2023-03-19T10:18:11;21.30;47.40
14577;DHT22;7375;46.072;14.470;2023-03-19T10:20:42;21.30;47.40
14577;DHT22;7375;46.072;14.470;2023-03-19T10:23:17;21.30;47.30
14577;DHT22;7375;46.072;14.470;2023-03-19T10:25:50;21.30;47.10
14577;DHT22;7375;46.072;14.470;2023-03-19T10:28:18;21.30;47.20
14577;DHT22;7375;46.072;14.470;2023-03-19T10:30:46;21.40;47.20
14577;DHT22;7375;46.072;14.470;2023-03-19T10:33:19;21.40;47.60
14577;DHT22;7375;46.072;14.470;2023-03-19T10:35:48;21.40;47.20
14577;DHT22;7375;46.072;14.470;2023-03-19T10:38:17;21.40;47.10
14577;DHT22;7375;46.072;14.470;2023-03-19T10:40:47;21.40;47.10
14577;DHT22;7375;46.072;14.470;2023-03-19T10:43:19;21.40;47.00
14577;DHT22;7375;46.072;14.470;2023-03-19T10:45:48;21.40;46.90
14577;DHT22;7375;46.072;14.470;2023-03-19T10:48:15;21.40;46.90
14577;DHT22;7375;46.072;14.470;2023-03-19T10:50:44;21.40;47.00
14577;DHT22;7375;46.072;14.470;2023-03-19T10:53:22;21.50;47.00
14577;DHT22;7375;46.072;14.470;2023-03-19T10:55:53;21.40;47.00
14577;DHT22;7375;46.072;14.470;2023-03-19T10:58:21;21.40;46.90
14577;DHT22;7375;46.072;14.470;2023-03-19T11:00:49;21.40;46.80
14577;DHT22;7375;46.072;14.470;2023-03-19T11:03:30;21.50;47.00
14577;DHT22;7375;46.072;14.470;2023-03-19T11:06:15;21.40;46.80
14577;DHT22;7375;46.072;14.470;2023-03-19T11:08:46;21.40;46.80
14577;DHT22;7375;46.072;14.470;2023-03-19T11:11:21;21.40;46.80
14577;DHT22;7375;46.072;14.470;2023-03-19T11:13:49;21.40;46.90
14577;DHT22;7375;46.072;14.470;2023-03-19T11:16:15;21.40;46.80
14577;DHT22;7375;46.072;14.470;2023-03-19T11:18:42;21.40;46.90
14577;DHT22;7375;46.072;14.470;2023-03-19T11:21:20;21.40;46.90
14577;DHT22;7375;46.072;14.470;2023-03-19T11:23:50;21.40;47.10
14577;DHT22;7375;46.072;14.470;2023-03-19T11:26:17;21.40;46.90
14577;DHT22;7375;46.072;14.470;2023-03-19T11:28:44;21.40;46.90
14577;DHT22;7375;46.072;14.470;2023-03-19T11:31:18;21.40;46.90
14577;DHT22;7375;46.072;14.470;2023-03-19T11:33:49;21.30;46.80
14577;DHT22;7375;46.072;14.470;2023-03-19T11:36:20;21.30;46.90
14577;DHT22;7375;46.072;14.470;2023-03-19T11:38:55;21.30;46.80
14577;DHT22;7375;46.072;14.470;2023-03-19T11:41:25;21.30;47.10
14577;DHT22;7375;46.072;14.470;2023-03-19T11:43:55;21.30;47.00
14577;DHT22;7375;46.072;14.470;2023-03-19T11:46:31;21.30;47.10
14577;DHT22;7375;46.072;14.470;2023-03-19T11:51:50;21.30;47.10
14577;DHT22;7375;46.072;14.470;2023-03-19T11:54:21;21.30;47.00
14577;DHT22;7375;46.072;14.470;2023-03-19T11:56:49;21.30;47.10
14577;DHT22;7375;46.072;14.470;2023-03-19T11:59:25;21.30;47.10
14577;DHT22;7375;46.072;14.470;2023-03-19T12:02:02;21.30;47.00
14577;DHT22;7375;46.072;14.470;2023-03-19T12:04:41;21.30;47.10
14577;DHT22;7375;46.072;14.470;2023-03-19T12:07:13;21.30;47.00
14577;DHT22;7375;46.072;14.470;2023-03-19T12:09:46;21.30;47.00
14577;DHT22;7375;46.072;14.470;2023-03-19T12:12:16;21.30;47.10
14577;DHT22;7375;46.072;14.470;2023-03-19T12:14:52;21.30;47.10
14577;DHT22;7375;46.072;14.470;2023-03-19T12:17:28;21.30;47.10
14577;DHT22;7375;46.072;14.470;2023-03-19T12:20:05;21.30;47.00
14577;DHT22;7375;46.072;14.470;2023-03-19T12:22:41;21.30;47.10
14577;DHT22;7375;46.072;14.470;2023-03-19T12:25:15;21.30;47.60
14577;DHT22;7375;46.072;14.470;2023-03-19T12:27:46;21.30;47.00
14577;DHT22;7375;46.072;14.470;2023-03-19T12:30:17;21.30;47.10
14577;DHT22;7375;46.072;14.470;2023-03-19T12:32:50;21.30;47.00
14577;DHT22;7375;46.072;14.470;2023-03-19T12:35:21;21.30;47.10
14577;DHT22;7375;46.072;14.470;2023-03-19T12:37:50;21.30;47.10
14577;DHT22;7375;46.072;14.470;2023-03-19T12:40:24;21.30;47.10
14577;DHT22;7375;46.072;14.470;2023-03-19T12:42:53;21.30;47.00
14577;DHT22;7375;46.072;14.470;2023-03-19T12:45:24;21.30;47.20
14577;DHT22;7375;46.072;14.470;2023-03-19T12:47:53;21.30;47.10
14577;DHT22;7375;46.072;14.470;2023-03-19T12:50:22;21.30;47.20
14577;DHT22;7375;46.072;14.470;2023-03-19T12:52:52;21.30;47.20
14577;DHT22;7375;46.072;14.470;2023-03-19T12:55:26;21.30;47.20
14577;DHT22;7375;46.072;14.470;2023-03-19T12:58:01;21.30;47.20
14577;DHT22;7375;46.072;14.470;2023-03-19T13:00:30;21.30;47.10
14577;DHT22;7375;46.072;14.470;2023-03-19T13:03:00;21.30;47.20
14577;DHT22;7375;46.072;14.470;2023-03-19T13:05:31;21.30;47.10
14577;DHT22;7375;46.072;14.470;2023-03-19T13:08:01;21.30;47.10
14577;DHT22;7375;46.072;14.470;2023-03-19T13:10:30;21.30;47.20
14577;DHT22;7375;46.072;14.470;2023-03-19T13:12:57;21.30;47.20
14577;DHT22;7375;46.072;14.470;2023-03-19T13:15:26;21.30;47.20
14577;DHT22;7375;46.072;14.470;2023-03-19T13:17:56;21.30;47.10
14577;DHT22;7375;46.072;14.470;2023-03-19T13:20:27;21.30;47.10
14577;DHT22;7375;46.072;14.470;2023-03-19T13:22:59;21.30;47.10
14577;DHT22;7375;46.072;14.470;2023-03-19T13:25:30;21.30;47.10
14577;DHT22;7375;46.072;14.470;2023-03-19T13:27:57;21.30;47.10
14577;DHT22;7375;46.072;14.470;2023-03-19T13:30:24;21.30;47.10
14577;DHT22;7375;46.072;14.470;2023-03-19T13:32:52;21.30;47.20
14577;DHT22;7375;46.072;14.470;2023-03-19T13:35:27;21.30;47.10
14577;DHT22;7375;46.072;14.470;2023-03-19T13:37:58;21.30;47.10
14577;DHT22;7375;46.072;14.470;2023-03-19T13:43:38;21.30;47.20
14577;DHT22;7375;46.072;14.470;2023-03-19T13:48:52;21.30;47.10
14577;DHT22;7375;46.072;14.470;2023-03-19T13:51:23;21.30;47.20
14577;DHT22;7375;46.072;14.470;2023-03-19T13:53:51;21.30;47.20
14577;DHT22;7375;46.072;14.470;2023-03-19T13:56:19;21.30;47.20
14577;DHT22;7375;46.072;14.470;2023-03-19T13:58:48;21.30;47.30
14577;DHT22;7375;46.072;14.470;2023-03-19T14:01:36;21.30;47.30
14577;DHT22;7375;46.072;14.470;2023-03-19T14:04:03;21.30;47.30
14577;DHT22;7375;46.072;14.470;2023-03-19T14:06:34;21.30;47.30
14577;DHT22;7375;46.072;14.470;2023-03-19T14:09:02;21.30;47.30
14577;DHT22;7375;46.072;14.470;2023-03-19T14:11:30;21.30;47.20
14577;DHT22;7375;46.072;14.470;2023-03-19T14:14:01;21.30;47.20
14577;DHT22;7375;46.072;14.470;2023-03-19T14:16:29;21.20;47.20
14577;DHT22;7375;46.072;14.470;2023-03-19T14:18:56;21.30;47.30
14577;DHT22;7375;46.072;14.470;2023-03-19T14:21:32;21.20;47.20
14577;DHT22;7375;46.072;14.470;2023-03-19T14:26:41;21.20;47.30
14577;DHT22;7375;46.072;14.470;2023-03-19T14:29:12;21.20;47.30
14577;DHT22;7375;46.072;14.470;2023-03-19T14:31:40;21.20;47.60
14577;DHT22;7375;46.072;14.470;2023-03-19T14:34:18;21.20;47.30
14577;DHT22;7375;46.072;14.470;2023-03-19T14:36:47;21.20;47.20
14577;DHT22;7375;46.072;14.470;2023-03-19T14:39:16;21.20;47.20
14577;DHT22;7375;46.072;14.470;2023-03-19T14:41:46;21.20;47.50
14577;DHT22;7375;46.072;14.470;2023-03-19T14:52:36;21.10;47.50
14577;DHT22;7375;46.072;14.470;2023-03-19T14:55:07;21.10;47.30
14577;DHT22;7375;46.072;14.470;2023-03-19T14:57:35;21.10;47.50
14577;DHT22;7375;46.072;14.470;2023-03-19T15:00:02;21.10;47.60
14577;DHT22;7375;46.072;14.470;2023-03-19T15:02:32;21.10;47.70
14577;DHT22;7375;46.072;14.470;2023-03-19T15:05:00;21.10;47.60
14577;DHT22;7375;46.072;14.470;2023-03-19T15:07:28;21.10;47.80
14577;DHT22;7375;46.072;14.470;2023-03-19T15:09:58;21.10;47.90
14577;DHT22;7375;46.072;14.470;2023-03-19T15:12:28;21.10;47.90
14577;DHT22;7375;46.072;14.470;2023-03-19T15:17:42;21.10;48.00
14577;DHT22;7375;46.072;14.470;2023-03-19T15:20:12;21.10;48.10
14577;DHT22;7375;46.072;14.470;2023-03-19T15:22:40;21.00;48.00
14577;DHT22;7375;46.072;14.470;2023-03-19T15:25:10;21.00;48.00
14577;DHT22;7375;46.072;14.470;2023-03-19T15:27:37;21.00;48.70
14577;DHT22;7375;46.072;14.470;2023-03-19T15:30:17;21.00;48.20
14577;DHT22;7375;46.072;14.470;2023-03-19T15:32:44;21.00;48.20
14577;DHT22;7375;46.072;14.470;2023-03-19T15:35:11;21.00;48.20
14577;DHT22;7375;46.072;14.470;2023-03-19T15:37:38;21.00;48.30
14577;DHT22;7375;46.072;14.470;2023-03-19T15:40:06;20.90;48.20
14577;DHT22;7375;46.072;14.470;2023-03-19T15:42:37;20.90;48.30
14577;DHT22;7375;46.072;14.470;2023-03-19T15:45:05;20.90;48.30
14577;DHT22;7375;46.072;14.470;2023-03-19T15:47:34;20.90;48.30
14577;DHT22;7375;46.072;14.470;2023-03-19T15:50:04;20.90;48.40
14577;DHT22;7375;46.072;14.470;2023-03-19T15:52:32;20.90;48.40
14577;DHT22;7375;46.072;14.470;2023-03-19T15:55:01;20.90;48.50
14577;DHT22;7375;46.072;14.470;2023-03-19T15:57:27;20.90;48.50
14577;DHT22;7375;46.072;14.470;2023-03-19T15:59:57;20.80;48.40